Resolute — WTW2234 — position and weather

sailwx.info

Track history (hours):
 
Tides and Currents Weather Stations Pressure Air Temp Water Temp Dewpoint Dewpoint Depression Visibility Wind Speed Wind Dir Waves Ship Positions

Resolute

Owner: Providence Steamboat Co., PROVIDENCE, RI. More information available from US FCC via Universal Licensing System and Coast Guard Vessel Documentation Center.

Last reported at 2014-Nov-26 02:33 UTC. Time now 2014-Nov-26 02:48 UTC.
Position N 40°48' W 073°55'.

Length 30 m; draft 4 m.

Type: Tug. MMSI: 367091630.

Date/timePositionNaut miles runAvg speedWind from/ knotsBaromVisibWave heightAir tempDewpointWater temp
2014-Nov-26 02:33N 40°48' W 073°55'3 3.1
2014-Nov-26 01:32N 40°48' W 073°51'7 5.3
2014-Nov-26 00:12N 40°53' W 073°44'12 7.0
2014-Nov-25 22:27N 40°59' W 073°29'6 7.1
2014-Nov-25 21:33N 41°00' W 073°21'8 7.8
2014-Nov-25 20:33N 40°60' W 073°11'5 5.5
2014-Nov-25 19:33N 40°57' W 073°04'0 0.2
2014-Nov-25 18:33N 40°57' W 073°04'0 0.0
2014-Nov-25 17:33N 40°57' W 073°04'0 0.0
2014-Nov-25 16:33N 40°57' W 073°04'0 0.0
2014-Nov-25 15:33N 40°57' W 073°04'0 0.0
2014-Nov-25 14:33N 40°57' W 073°04'0 0.0
2014-Nov-25 13:33N 40°57' W 073°04'0 0.0
2014-Nov-25 12:33N 40°57' W 073°04'2 1.9
2014-Nov-25 11:33N 40°58' W 073°06'5 4.9
2014-Nov-25 10:33N 40°60' W 073°12'6 5.7
2014-Nov-25 09:33N 41°00' W 073°20'6 5.9
2014-Nov-25 08:33N 40°59' W 073°27'7 6.1
2014-Nov-25 07:21N 40°56' W 073°36'5 5.7
2014-Nov-25 06:31N 40°54' W 073°41'7 2.9
2014-Nov-25 04:12N 40°48' W 073°47'0 0.0
2014-Nov-25 03:30N 40°48' W 073°47'0 0.0
2014-Nov-25 00:33N 40°48' W 073°47'1 0.8
2014-Nov-24 23:04N 40°48' W 073°48'4 7.7
2014-Nov-24 22:31N 40°48' W 073°54'5 5.3
2014-Nov-24 21:33N 40°44' W 073°58'5 4.8
2014-Nov-24 20:33N 40°40' W 074°02'1 0.9
2014-Nov-24 19:33N 40°40' W 074°03'4 4.0
2014-Nov-24 18:33N 40°39' W 074°08'2 1.7
2014-Nov-24 17:33N 40°38' W 074°10'0 0.0
2014-Nov-24 16:33N 40°38' W 074°10'0 0.0
2014-Nov-24 15:33N 40°38' W 074°10'2 1.8
2014-Nov-24 14:33N 40°38' W 074°12'1 0.6
2014-Nov-24 13:31N 40°38' W 074°12'6 6.0
2014-Nov-24 12:33N 40°39' W 074°04'1 0.8
2014-Nov-24 11:33N 40°39' W 074°05'4 3.6
2014-Nov-24 10:33N 40°38' W 074°10'0 0.0
2014-Nov-24 09:33N 40°38' W 074°10'0 0.0
2014-Nov-24 08:33N 40°38' W 074°10'0 0.0
2014-Nov-24 07:32N 40°38' W 074°10'0 0.0
2014-Nov-24 06:32N 40°38' W 074°10'7 5.6
2014-Nov-24 05:18N 40°33' W 074°15'1 1.4
2014-Nov-24 04:33N 40°33' W 074°14'7 6.6
2014-Nov-24 03:33N 40°39' W 074°08'6 6.3
2014-Nov-24 02:33N 40°40' W 074°00'0 0.0
2014-Nov-24 01:33N 40°40' W 074°00'0 0.0
2014-Nov-24 00:33N 40°40' W 074°00'5 4.9
2014-Nov-23 23:33N 40°39' W 074°07'2 1.9
2014-Nov-23 22:33N 40°40' W 074°09'1 1.3
2014-Nov-23 21:33N 40°39' W 074°09'1 0.8
2014-Nov-23 20:33N 40°38' W 074°10'0 0.0
2014-Nov-23 19:33N 40°38' W 074°10'0 0.0
2014-Nov-23 18:33N 40°38' W 074°10'0 0.1
2014-Nov-23 17:34N 40°39' W 074°10'6 6.5
2014-Nov-23 16:33N 40°41' W 074°02'8 7.4
2014-Nov-23 15:32N 40°48' W 073°59'7 6.0
2014-Nov-23 14:20N 40°55' W 073°55'7 0.9
2014-Nov-23 06:26N 40°48' W 073°59'7 8.4
2014-Nov-23 05:33N 40°41' W 074°02'7 6.6
2014-Nov-23 04:33N 40°38' W 074°10'2 1.6
2014-Nov-23 03:33N 40°39' W 074°08'8 8.1
2014-Nov-23 02:33N 40°42' W 073°58'0 0.1
2014-Nov-23 01:33N 40°42' W 073°58'7 6.9
2014-Nov-23 00:33N 40°39' W 074°06'2 2.0
2014-Nov-22 23:33N 40°39' W 074°09'1 0.6
2014-Nov-22 22:33N 40°40' W 074°09'2 1.7
2014-Nov-22 21:33N 40°39' W 074°07'0 0.4
2014-Nov-22 20:30N 40°39' W 074°07'0 0.0
2014-Nov-22 19:33N 40°39' W 074°07'1 1.4
2014-Nov-22 18:33N 40°39' W 074°05'0 0.0
2014-Nov-22 17:33N 40°39' W 074°05'3 3.4
2014-Nov-22 16:33N 40°38' W 074°10'0 0.0
2014-Nov-22 15:33N 40°38' W 074°10'0 0.0
2014-Nov-22 14:33N 40°38' W 074°10'0 0.0
2014-Nov-22 13:33N 40°38' W 074°10'3 2.5
2014-Nov-22 12:33N 40°39' W 074°07'3 3.3
2014-Nov-22 11:33N 40°39' W 074°02'0 0.0
2014-Nov-22 10:33N 40°39' W 074°02'0 0.3
2014-Nov-22 09:33N 40°39' W 074°03'5 5.3
2014-Nov-22 08:33N 40°43' W 073°58'6 1.8
2014-Nov-22 05:27N 40°48' W 073°54'0 0.0
2014-Nov-22 03:23N 40°48' W 073°54'1 1.8
2014-Nov-22 02:33N 40°47' W 073°55'3 2.6
2014-Nov-22 01:33N 40°45' W 073°58'7 7.0
2014-Nov-22 00:33N 40°40' W 074°04'1 1.3
2014-Nov-21 23:33N 40°40' W 074°05'0 0.0
2014-Nov-21 22:33N 40°40' W 074°05'4 4.4
2014-Nov-21 21:33N 40°42' W 073°60'7 7.0
2014-Nov-21 20:33N 40°48' W 073°54'3 2.8
2014-Nov-21 19:33N 40°46' W 073°57'5 4.8
2014-Nov-21 18:33N 40°42' W 074°00'3 3.3
2014-Nov-21 17:33N 40°39' W 074°03'0 0.0
2014-Nov-21 16:33N 40°39' W 074°03'0 0.0
2014-Nov-21 15:33N 40°39' W 074°03'6 5.9
2014-Nov-21 14:33N 40°39' W 074°10'0 0.2
2014-Nov-21 11:32N 40°39' W 074°10'0 0.4
2014-Nov-21 10:33N 40°38' W 074°10'0 0.0
2014-Nov-21 09:33N 40°38' W 074°10'0 0.0
2014-Nov-21 08:33N 40°38' W 074°10'0 0.0
2014-Nov-21 07:32N 40°38' W 074°10'0 0.0
2014-Nov-21 06:33N 40°38' W 074°10'0 0.0
2014-Nov-21 05:33N 40°38' W 074°10'0 0.0
2014-Nov-21 04:33N 40°38' W 074°10'0 0.0
2014-Nov-21 03:33N 40°38' W 074°10'3 2.8
2014-Nov-21 02:33N 40°41' W 074°08'1 0.6
2014-Nov-21 01:34N 40°41' W 074°08'2 1.9
2014-Nov-21 00:33N 40°39' W 074°07'3 3.3
2014-Nov-20 23:33N 40°41' W 074°04'4 3.9
2014-Nov-20 22:34N 40°39' W 074°08'1 1.2
2014-Nov-20 21:33N 40°38' W 074°10'1 1.1
2014-Nov-20 20:21N 40°40' W 074°09'0 0.1
2014-Nov-20 19:25N 40°40' W 074°09'0 0.0
2014-Nov-20 17:20N 40°40' W 074°09'0 0.0
2014-Nov-20 16:06N 40°40' W 074°09'1 1.4
2014-Nov-20 15:33N 40°39' W 074°09'4 0.8
2014-Nov-20 10:25N 40°35' W 074°12'3 0.7
2014-Nov-20 05:32N 40°33' W 074°15'0 0.0
2014-Nov-20 04:31N 40°33' W 074°15'0 0.0
2014-Nov-20 02:28N 40°33' W 074°15'4 4.3
2014-Nov-20 01:32N 40°36' W 074°12'7 7.4
2014-Nov-20 00:34N 40°40' W 074°04'0 0.3
2014-Nov-19 23:33N 40°40' W 074°04'0 0.0
2014-Nov-19 22:33N 40°40' W 074°04'3 2.9
2014-Nov-19 21:33N 40°39' W 074°08'3 3.2
2014-Nov-19 20:31N 40°38' W 074°12'5 4.8
2014-Nov-19 19:30N 40°33' W 074°14'0 0.0
2014-Nov-19 18:31N 40°33' W 074°14'1 0.5
2014-Nov-19 16:32N 40°33' W 074°15'4 3.1
2014-Nov-19 15:07N 40°36' W 074°12'4 6.9
2014-Nov-19 14:33N 40°39' W 074°08'3 3.5
2014-Nov-19 13:33N 40°38' W 074°04'5 4.6
2014-Nov-19 12:33N 40°39' W 074°10'0 0.4
2014-Nov-19 11:33N 40°39' W 074°10'4 4.1
2014-Nov-19 10:33N 40°39' W 074°05'1 1.1
2014-Nov-19 09:33N 40°40' W 074°05'0 0.1
2014-Nov-19 08:33N 40°40' W 074°05'0 0.0
2014-Nov-19 07:33N 40°40' W 074°05'2 1.8
2014-Nov-19 06:33N 40°39' W 074°07'9 2.7
2014-Nov-19 03:04N 40°32' W 074°15'0 0.0
2014-Nov-19 02:11N 40°32' W 074°15'0 0.6
2014-Nov-19 01:23N 40°33' W 074°15'5 5.7
2014-Nov-19 00:31N 40°37' W 074°12'2 1.9
2014-Nov-18 23:33N 40°39' W 074°11'1 1.0
2014-Nov-18 22:33N 40°38' W 074°10'0 0.0
2014-Nov-18 21:33N 40°38' W 074°10'0 0.0
2014-Nov-18 20:33N 40°38' W 074°10'1 1.2
2014-Nov-18 19:28N 40°40' W 074°09'2 2.1
2014-Nov-18 18:34N 40°41' W 074°08'1 0.6
2014-Nov-18 16:33N 40°40' W 074°08'1 1.5
2014-Nov-18 15:33N 40°39' W 074°08'1 1.1
2014-Nov-18 14:33N 40°38' W 074°10'0 0.0
2014-Nov-18 13:33N 40°38' W 074°10'1 0.6
2014-Nov-18 12:33N 40°39' W 074°10'2 1.8
2014-Nov-18 11:34N 40°38' W 074°12'6 6.3
2014-Nov-18 10:33N 40°39' W 074°04'1 1.3
2014-Nov-18 09:33N 40°39' W 074°02'0 0.0
2014-Nov-18 08:34N 40°39' W 074°02'2 1.6
2014-Nov-18 07:33N 40°40' W 074°04'0 0.0
2014-Nov-18 06:33N 40°40' W 074°04'0 0.0
2014-Nov-18 05:33N 40°40' W 074°04'0 0.0
2014-Nov-18 04:33N 40°40' W 074°04'0 0.0
2014-Nov-18 03:33N 40°40' W 074°04'4 3.7
2014-Nov-18 02:33N 40°38' W 074°09'1 0.9
2014-Nov-18 01:33N 40°38' W 074°10'3 2.8
2014-Nov-18 00:33N 40°39' W 074°06'3 2.7
2014-Nov-17 23:33N 40°41' W 074°08'0 0.0
2014-Nov-17 22:33N 40°41' W 074°08'3 2.9
2014-Nov-17 21:33N 40°40' W 074°05'0 0.3
2014-Nov-17 20:33N 40°40' W 074°04'0 0.0
2014-Nov-17 19:33N 40°40' W 074°04'0 0.0
2014-Nov-17 18:33N 40°40' W 074°04'0 0.0
2014-Nov-17 17:33N 40°40' W 074°04'0 0.0
2014-Nov-17 16:34N 40°40' W 074°04'0 0.0
2014-Nov-17 15:34N 40°40' W 074°04'0 0.0
2014-Nov-17 14:33N 40°40' W 074°04'0 0.0
2014-Nov-17 13:33N 40°40' W 074°04'0 0.0
2014-Nov-17 12:33N 40°40' W 074°04'0 0.4
2014-Nov-17 11:33N 40°40' W 074°05'2 1.5
2014-Nov-17 10:33N 40°39' W 074°03'1 1.1
2014-Nov-17 09:33N 40°40' W 074°04'0 0.0
2014-Nov-17 08:33N 40°40' W 074°04'0 0.0
2014-Nov-17 07:33N 40°40' W 074°04'0 0.0
2014-Nov-17 06:33N 40°40' W 074°04'0 0.0
2014-Nov-17 05:33N 40°40' W 074°04'0 0.0
2014-Nov-17 04:33N 40°40' W 074°04'0 0.0
2014-Nov-17 03:33N 40°40' W 074°04'0 0.0
2014-Nov-17 02:33N 40°40' W 074°04'0 0.0
2014-Nov-17 01:33N 40°40' W 074°04'0 0.0
2014-Nov-17 00:33N 40°40' W 074°04'0 0.0
2014-Nov-16 23:33N 40°40' W 074°04'1 1.0
2014-Nov-16 22:33N 40°41' W 074°04'2 2.2
2014-Nov-16 21:33N 40°39' W 074°03'5 4.9
2014-Nov-16 20:32N 40°38' W 074°10'0 0.0
2014-Nov-16 19:33N 40°38' W 074°10'0 0.0
2014-Nov-16 18:33N 40°38' W 074°10'0 0.0
2014-Nov-16 17:33N 40°38' W 074°10'0 0.0
2014-Nov-16 16:33N 40°38' W 074°10'0 0.0
2014-Nov-16 15:33N 40°38' W 074°10'0 0.0
2014-Nov-16 14:33N 40°38' W 074°10'0 0.0
2014-Nov-16 13:33N 40°38' W 074°10'6 5.3
2014-Nov-16 12:29N 40°33' W 074°13'3 2.5
2014-Nov-16 11:27N 40°36' W 074°12'2 2.0
2014-Nov-16 10:33N 40°38' W 074°12'0 0.2
2014-Nov-16 08:27N 40°38' W 074°12'3 3.6
2014-Nov-16 07:33N 40°39' W 074°08'3 3.3
2014-Nov-16 06:33N 40°39' W 074°03'1 1.3
2014-Nov-16 05:33N 40°40' W 074°04'0 0.0
2014-Nov-16 04:33N 40°40' W 074°04'3 2.8
2014-Nov-16 03:33N 40°40' W 074°00'  
Track history (hours):
 
Tides and Currents Weather Stations Pressure Air Temp Water Temp Dewpoint Dewpoint Depression Visibility Wind Speed Wind Dir Waves Ship Positions

Resolute

Owner: Providence Steamboat Co., PROVIDENCE, RI. More information available from US FCC via Universal Licensing System and Coast Guard Vessel Documentation Center.

Last reported at 2014-Nov-26 02:33 UTC. Time now 2014-Nov-26 02:48 UTC.
Position N 40°48' W 073°55'.

Length 30 m; draft 4 m.

Type: Tug. MMSI: 367091630.

Date/timePositionNaut miles runAvg speedWind from/ knotsBaromVisibWave heightAir tempDewpointWater temp
2014-Nov-26 02:33N 40°48' W 073°55'3 3.1
2014-Nov-26 01:32N 40°48' W 073°51'7 5.3
2014-Nov-26 00:12N 40°53' W 073°44'12 7.0
2014-Nov-25 22:27N 40°59' W 073°29'6 7.1
2014-Nov-25 21:33N 41°00' W 073°21'8 7.8
2014-Nov-25 20:33N 40°60' W 073°11'5 5.5
2014-Nov-25 19:33N 40°57' W 073°04'0 0.2
2014-Nov-25 18:33N 40°57' W 073°04'0 0.0
2014-Nov-25 17:33N 40°57' W 073°04'0 0.0
2014-Nov-25 16:33N 40°57' W 073°04'0 0.0
2014-Nov-25 15:33N 40°57' W 073°04'0 0.0
2014-Nov-25 14:33N 40°57' W 073°04'0 0.0
2014-Nov-25 13:33N 40°57' W 073°04'0 0.0
2014-Nov-25 12:33N 40°57' W 073°04'2 1.9
2014-Nov-25 11:33N 40°58' W 073°06'5 4.9
2014-Nov-25 10:33N 40°60' W 073°12'6 5.7
2014-Nov-25 09:33N 41°00' W 073°20'6 5.9
2014-Nov-25 08:33N 40°59' W 073°27'7 6.1
2014-Nov-25 07:21N 40°56' W 073°36'5 5.7
2014-Nov-25 06:31N 40°54' W 073°41'7 2.9
2014-Nov-25 04:12N 40°48' W 073°47'0 0.0
2014-Nov-25 03:30N 40°48' W 073°47'0 0.0
2014-Nov-25 00:33N 40°48' W 073°47'1 0.8
2014-Nov-24 23:04N 40°48' W 073°48'4 7.7
2014-Nov-24 22:31N 40°48' W 073°54'5 5.3
2014-Nov-24 21:33N 40°44' W 073°58'5 4.8
2014-Nov-24 20:33N 40°40' W 074°02'1 0.9
2014-Nov-24 19:33N 40°40' W 074°03'4 4.0
2014-Nov-24 18:33N 40°39' W 074°08'2 1.7
2014-Nov-24 17:33N 40°38' W 074°10'0 0.0
2014-Nov-24 16:33N 40°38' W 074°10'0 0.0
2014-Nov-24 15:33N 40°38' W 074°10'2 1.8
2014-Nov-24 14:33N 40°38' W 074°12'1 0.6
2014-Nov-24 13:31N 40°38' W 074°12'6 6.0
2014-Nov-24 12:33N 40°39' W 074°04'1 0.8
2014-Nov-24 11:33N 40°39' W 074°05'4 3.6
2014-Nov-24 10:33N 40°38' W 074°10'0 0.0
2014-Nov-24 09:33N 40°38' W 074°10'0 0.0
2014-Nov-24 08:33N 40°38' W 074°10'0 0.0
2014-Nov-24 07:32N 40°38' W 074°10'0 0.0
2014-Nov-24 06:32N 40°38' W 074°10'7 5.6
2014-Nov-24 05:18N 40°33' W 074°15'1 1.4
2014-Nov-24 04:33N 40°33' W 074°14'7 6.6
2014-Nov-24 03:33N 40°39' W 074°08'6 6.3
2014-Nov-24 02:33N 40°40' W 074°00'0 0.0
2014-Nov-24 01:33N 40°40' W 074°00'0 0.0
2014-Nov-24 00:33N 40°40' W 074°00'5 4.9
2014-Nov-23 23:33N 40°39' W 074°07'2 1.9
2014-Nov-23 22:33N 40°40' W 074°09'1 1.3
2014-Nov-23 21:33N 40°39' W 074°09'1 0.8
2014-Nov-23 20:33N 40°38' W 074°10'0 0.0
2014-Nov-23 19:33N 40°38' W 074°10'0 0.0
2014-Nov-23 18:33N 40°38' W 074°10'0 0.1
2014-Nov-23 17:34N 40°39' W 074°10'6 6.5
2014-Nov-23 16:33N 40°41' W 074°02'8 7.4
2014-Nov-23 15:32N 40°48' W 073°59'7 6.0
2014-Nov-23 14:20N 40°55' W 073°55'7 0.9
2014-Nov-23 06:26N 40°48' W 073°59'7 8.4
2014-Nov-23 05:33N 40°41' W 074°02'7 6.6
2014-Nov-23 04:33N 40°38' W 074°10'2 1.6
2014-Nov-23 03:33N 40°39' W 074°08'8 8.1
2014-Nov-23 02:33N 40°42' W 073°58'0 0.1
2014-Nov-23 01:33N 40°42' W 073°58'7 6.9
2014-Nov-23 00:33N 40°39' W 074°06'2 2.0
2014-Nov-22 23:33N 40°39' W 074°09'1 0.6
2014-Nov-22 22:33N 40°40' W 074°09'2 1.7
2014-Nov-22 21:33N 40°39' W 074°07'0 0.4
2014-Nov-22 20:30N 40°39' W 074°07'0 0.0
2014-Nov-22 19:33N 40°39' W 074°07'1 1.4
2014-Nov-22 18:33N 40°39' W 074°05'0 0.0
2014-Nov-22 17:33N 40°39' W 074°05'3 3.4
2014-Nov-22 16:33N 40°38' W 074°10'0 0.0
2014-Nov-22 15:33N 40°38' W 074°10'0 0.0
2014-Nov-22 14:33N 40°38' W 074°10'0 0.0
2014-Nov-22 13:33N 40°38' W 074°10'3 2.5
2014-Nov-22 12:33N 40°39' W 074°07'3 3.3
2014-Nov-22 11:33N 40°39' W 074°02'0 0.0
2014-Nov-22 10:33N 40°39' W 074°02'0 0.3
2014-Nov-22 09:33N 40°39' W 074°03'5 5.3
2014-Nov-22 08:33N 40°43' W 073°58'6 1.8
2014-Nov-22 05:27N 40°48' W 073°54'0 0.0
2014-Nov-22 03:23N 40°48' W 073°54'1 1.8
2014-Nov-22 02:33N 40°47' W 073°55'3 2.6
2014-Nov-22 01:33N 40°45' W 073°58'7 7.0
2014-Nov-22 00:33N 40°40' W 074°04'1 1.3
2014-Nov-21 23:33N 40°40' W 074°05'0 0.0
2014-Nov-21 22:33N 40°40' W 074°05'4 4.4
2014-Nov-21 21:33N 40°42' W 073°60'7 7.0
2014-Nov-21 20:33N 40°48' W 073°54'3 2.8
2014-Nov-21 19:33N 40°46' W 073°57'5 4.8
2014-Nov-21 18:33N 40°42' W 074°00'3 3.3
2014-Nov-21 17:33N 40°39' W 074°03'0 0.0
2014-Nov-21 16:33N 40°39' W 074°03'0 0.0
2014-Nov-21 15:33N 40°39' W 074°03'6 5.9
2014-Nov-21 14:33N 40°39' W 074°10'0 0.2
2014-Nov-21 11:32N 40°39' W 074°10'0 0.4
2014-Nov-21 10:33N 40°38' W 074°10'0 0.0
2014-Nov-21 09:33N 40°38' W 074°10'0 0.0
2014-Nov-21 08:33N 40°38' W 074°10'0 0.0
2014-Nov-21 07:32N 40°38' W 074°10'0 0.0
2014-Nov-21 06:33N 40°38' W 074°10'0 0.0
2014-Nov-21 05:33N 40°38' W 074°10'0 0.0
2014-Nov-21 04:33N 40°38' W 074°10'0 0.0
2014-Nov-21 03:33N 40°38' W 074°10'3 2.8
2014-Nov-21 02:33N 40°41' W 074°08'1 0.6
2014-Nov-21 01:34N 40°41' W 074°08'2 1.9
2014-Nov-21 00:33N 40°39' W 074°07'3 3.3
2014-Nov-20 23:33N 40°41' W 074°04'4 3.9
2014-Nov-20 22:34N 40°39' W 074°08'1 1.2
2014-Nov-20 21:33N 40°38' W 074°10'1 1.1
2014-Nov-20 20:21N 40°40' W 074°09'0 0.1
2014-Nov-20 19:25N 40°40' W 074°09'0 0.0
2014-Nov-20 17:20N 40°40' W 074°09'0 0.0
2014-Nov-20 16:06N 40°40' W 074°09'1 1.4
2014-Nov-20 15:33N 40°39' W 074°09'4 0.8
2014-Nov-20 10:25N 40°35' W 074°12'3 0.7
2014-Nov-20 05:32N 40°33' W 074°15'0 0.0
2014-Nov-20 04:31N 40°33' W 074°15'0 0.0
2014-Nov-20 02:28N 40°33' W 074°15'4 4.3
2014-Nov-20 01:32N 40°36' W 074°12'7 7.4
2014-Nov-20 00:34N 40°40' W 074°04'0 0.3
2014-Nov-19 23:33N 40°40' W 074°04'0 0.0
2014-Nov-19 22:33N 40°40' W 074°04'3 2.9
2014-Nov-19 21:33N 40°39' W 074°08'3 3.2
2014-Nov-19 20:31N 40°38' W 074°12'5 4.8
2014-Nov-19 19:30N 40°33' W 074°14'0 0.0
2014-Nov-19 18:31N 40°33' W 074°14'1 0.5
2014-Nov-19 16:32N 40°33' W 074°15'4 3.1
2014-Nov-19 15:07N 40°36' W 074°12'4 6.9
2014-Nov-19 14:33N 40°39' W 074°08'3 3.5
2014-Nov-19 13:33N 40°38' W 074°04'5 4.6
2014-Nov-19 12:33N 40°39' W 074°10'0 0.4
2014-Nov-19 11:33N 40°39' W 074°10'4 4.1
2014-Nov-19 10:33N 40°39' W 074°05'1 1.1
2014-Nov-19 09:33N 40°40' W 074°05'0 0.1
2014-Nov-19 08:33N 40°40' W 074°05'0 0.0
2014-Nov-19 07:33N 40°40' W 074°05'2 1.8
2014-Nov-19 06:33N 40°39' W 074°07'9 2.7
2014-Nov-19 03:04N 40°32' W 074°15'0 0.0
2014-Nov-19 02:11N 40°32' W 074°15'0 0.6
2014-Nov-19 01:23N 40°33' W 074°15'5 5.7
2014-Nov-19 00:31N 40°37' W 074°12'2 1.9
2014-Nov-18 23:33N 40°39' W 074°11'1 1.0
2014-Nov-18 22:33N 40°38' W 074°10'0 0.0
2014-Nov-18 21:33N 40°38' W 074°10'0 0.0
2014-Nov-18 20:33N 40°38' W 074°10'1 1.2
2014-Nov-18 19:28N 40°40' W 074°09'2 2.1
2014-Nov-18 18:34N 40°41' W 074°08'1 0.6
2014-Nov-18 16:33N 40°40' W 074°08'1 1.5
2014-Nov-18 15:33N 40°39' W 074°08'1 1.1
2014-Nov-18 14:33N 40°38' W 074°10'0 0.0
2014-Nov-18 13:33N 40°38' W 074°10'1 0.6
2014-Nov-18 12:33N 40°39' W 074°10'2 1.8
2014-Nov-18 11:34N 40°38' W 074°12'6 6.3
2014-Nov-18 10:33N 40°39' W 074°04'1 1.3
2014-Nov-18 09:33N 40°39' W 074°02'0 0.0
2014-Nov-18 08:34N 40°39' W 074°02'2 1.6
2014-Nov-18 07:33N 40°40' W 074°04'0 0.0
2014-Nov-18 06:33N 40°40' W 074°04'0 0.0
2014-Nov-18 05:33N 40°40' W 074°04'0 0.0
2014-Nov-18 04:33N 40°40' W 074°04'0 0.0
2014-Nov-18 03:33N 40°40' W 074°04'4 3.7
2014-Nov-18 02:33N 40°38' W 074°09'1 0.9
2014-Nov-18 01:33N 40°38' W 074°10'3 2.8
2014-Nov-18 00:33N 40°39' W 074°06'3 2.7
2014-Nov-17 23:33N 40°41' W 074°08'0 0.0
2014-Nov-17 22:33N 40°41' W 074°08'3 2.9
2014-Nov-17 21:33N 40°40' W 074°05'0 0.3
2014-Nov-17 20:33N 40°40' W 074°04'0 0.0
2014-Nov-17 19:33N 40°40' W 074°04'0 0.0
2014-Nov-17 18:33N 40°40' W 074°04'0 0.0
2014-Nov-17 17:33N 40°40' W 074°04'0 0.0
2014-Nov-17 16:34N 40°40' W 074°04'0 0.0
2014-Nov-17 15:34N 40°40' W 074°04'0 0.0
2014-Nov-17 14:33N 40°40' W 074°04'0 0.0
2014-Nov-17 13:33N 40°40' W 074°04'0 0.0
2014-Nov-17 12:33N 40°40' W 074°04'0 0.4
2014-Nov-17 11:33N 40°40' W 074°05'2 1.5
2014-Nov-17 10:33N 40°39' W 074°03'1 1.1
2014-Nov-17 09:33N 40°40' W 074°04'0 0.0
2014-Nov-17 08:33N 40°40' W 074°04'0 0.0
2014-Nov-17 07:33N 40°40' W 074°04'0 0.0
2014-Nov-17 06:33N 40°40' W 074°04'0 0.0
2014-Nov-17 05:33N 40°40' W 074°04'0 0.0
2014-Nov-17 04:33N 40°40' W 074°04'0 0.0
2014-Nov-17 03:33N 40°40' W 074°04'0 0.0
2014-Nov-17 02:33N 40°40' W 074°04'0 0.0
2014-Nov-17 01:33N 40°40' W 074°04'0 0.0
2014-Nov-17 00:33N 40°40' W 074°04'0 0.0
2014-Nov-16 23:33N 40°40' W 074°04'1 1.0
2014-Nov-16 22:33N 40°41' W 074°04'2 2.2
2014-Nov-16 21:33N 40°39' W 074°03'5 4.9
2014-Nov-16 20:32N 40°38' W 074°10'0 0.0
2014-Nov-16 19:33N 40°38' W 074°10'0 0.0
2014-Nov-16 18:33N 40°38' W 074°10'0 0.0
2014-Nov-16 17:33N 40°38' W 074°10'0 0.0
2014-Nov-16 16:33N 40°38' W 074°10'0 0.0
2014-Nov-16 15:33N 40°38' W 074°10'0 0.0
2014-Nov-16 14:33N 40°38' W 074°10'0 0.0
2014-Nov-16 13:33N 40°38' W 074°10'6 5.3
2014-Nov-16 12:29N 40°33' W 074°13'3 2.5
2014-Nov-16 11:27N 40°36' W 074°12'2 2.0
2014-Nov-16 10:33N 40°38' W 074°12'0 0.2
2014-Nov-16 08:27N 40°38' W 074°12'3 3.6
2014-Nov-16 07:33N 40°39' W 074°08'3 3.3
2014-Nov-16 06:33N 40°39' W 074°03'1 1.3
2014-Nov-16 05:33N 40°40' W 074°04'0 0.0
2014-Nov-16 04:33N 40°40' W 074°04'3 2.8
2014-Nov-16 03:33N 40°40' W 074°00'  

Dump ship's entire track history